Time;durP1;ratioP1;P1;durP2;ratioP2;P2;SDS_P1;SDS_P2;PMS_P1;PMS_P2;Temp;Humidity;BMP_temperature;BMP_pressure;BME280_temperature;BME280_humidity;BME280_pressure;Samples;Min_cycle;Max_cycle;Signal;HPM_P1;HPM_P2
2023/01/03 00:01:48;;;;;;;19.58;13.55;;;;;;;7.05;100.00;102449.50;4974116;28;20122;-74
2023/01/03 00:04:16;;;;;;;22.25;13.00;;;;;;;7.03;100.00;102446.88;4973481;28;20829;-75
2023/01/03 00:06:50;;;;;;;22.45;13.65;;;;;;;7.05;100.00;102449.50;4973794;28;20047;-73
2023/01/03 00:09:21;;;;;;;20.42;13.25;;;;;;;7.05;100.00;102446.88;4972194;28;20222;-73
2023/01/03 00:14:41;;;;;;;23.25;12.48;;;;;;;7.03;100.00;102449.50;4972591;28;20094;-73
2023/01/03 00:17:10;;;;;;;20.08;12.52;;;;;;;7.04;100.00;102448.66;4972879;28;20138;-73
2023/01/03 00:19:42;;;;;;;19.33;11.75;;;;;;;7.03;100.00;102453.84;4973280;28;20043;-73
2023/01/03 00:22:11;;;;;;;18.13;11.52;;;;;;;7.04;100.00;102460.84;4978053;28;20055;-73
2023/01/03 00:24:39;;;;;;;19.42;11.75;;;;;;;7.05;100.00;102449.50;4972163;28;20058;-73
2023/01/03 00:27:07;;;;;;;18.52;10.98;;;;;;;7.07;100.00;102460.91;4973557;28;20050;-73
2023/01/03 00:29:34;;;;;;;17.48;11.30;;;;;;;7.07;100.00;102459.13;4973496;28;20139;-73
2023/01/03 00:32:03;;;;;;;14.57;10.23;;;;;;;7.06;100.00;102459.13;4975277;28;20047;-73
2023/01/03 00:34:31;;;;;;;16.70;10.48;;;;;;;7.07;100.00;102456.53;4973676;28;20040;-74
2023/01/03 00:37:00;;;;;;;15.23;9.50;;;;;;;7.07;100.00;102464.38;4971415;28;20202;-74
2023/01/03 00:39:28;;;;;;;14.32;9.60;;;;;;;7.07;100.00;102464.38;4971313;28;20050;-75
2023/01/03 00:41:55;;;;;;;16.08;9.70;;;;;;;7.08;100.00;102465.28;4969675;28;20043;-75
2023/01/03 00:44:22;;;;;;;17.13;9.60;;;;;;;7.07;100.00;102464.38;4972770;28;20059;-74
2023/01/03 00:46:49;;;;;;;13.90;9.23;;;;;;;7.04;99.97;102460.84;4973932;28;20480;-74
2023/01/03 00:49:16;;;;;;;13.77;8.95;;;;;;;7.02;99.80;102475.72;4971478;28;20054;-75
2023/01/03 00:51:44;;;;;;;14.45;7.95;;;;;;;6.93;99.09;102471.25;4973900;28;20051;-74
2023/01/03 00:54:13;;;;;;;13.55;8.35;;;;;;;6.81;98.77;102470.25;4972695;28;20058;-75
2023/01/03 00:56:46;;;;;;;14.60;8.23;;;;;;;6.69;98.01;102472.72;4973028;28;20050;-75
2023/01/03 00:59:17;;;;;;;14.30;8.50;;;;;;;6.52;97.88;102477.75;4972785;28;20043;-75
2023/01/03 01:01:51;;;;;;;15.88;8.27;;;;;;;6.40;97.47;102486.34;4972922;28;20051;-74
2023/01/03 01:04:27;;;;;;;15.38;8.35;;;;;;;6.27;98.07;102487.00;4971847;28;20074;-74
2023/01/03 01:07:02;;;;;;;;;;;;;;;6.12;98.15;102477.19;4935195;29;20052;-74
2023/01/03 01:09:36;;;;;;;15.07;9.15;;;;;;;6.02;98.12;102491.91;4933031;28;19927;-74
2023/01/03 01:12:06;;;;;;;14.55;8.38;;;;;;;5.92;98.29;102485.59;4933961;28;20052;-74
2023/01/03 01:14:34;;;;;;;14.10;9.05;;;;;;;5.81;98.27;102495.91;4933210;28;20973;-75
2023/01/03 01:17:05;;;;;;;16.00;9.07;;;;;;;5.73;98.45;102503.63;4935070;28;20150;-75
2023/01/03 01:19:40;;;;;;;19.42;9.38;;;;;;;5.66;98.47;102513.97;4934128;28;20044;-74
2023/01/03 01:22:08;;;;;;;14.85;8.70;;;;;;;5.56;98.59;102520.81;4935134;28;20051;-74
2023/01/03 01:24:36;;;;;;;16.42;9.27;;;;;;;5.51;98.88;102519.81;4933698;28;20474;-75
2023/01/03 01:27:03;;;;;;;13.55;9.35;;;;;;;5.49;99.04;102516.31;4934920;28;20051;-74
2023/01/03 01:29:31;;;;;;;15.05;9.18;;;;;;;5.48;99.46;102522.41;4934507;28;20048;-74
2023/01/03 01:31:58;;;;;;;16.67;9.05;;;;;;;5.46;99.40;102535.44;4933397;28;20127;-74
2023/01/03 01:34:25;;;;;;;14.35;9.48;;;;;;;5.40;99.33;102530.97;4932563;28;20044;-74
2023/01/03 01:36:52;;;;;;;17.13;9.18;;;;;;;5.33;99.14;102531.72;4934223;28;20102;-74
2023/01/03 01:39:24;;;;;;;14.65;8.57;;;;;;;5.21;98.81;102537.59;4933359;28;20040;-74
2023/01/03 01:44:56;;;;;;;14.50;8.20;;;;;;;5.02;98.92;102540.72;4923438;29;20047;-74
2023/01/03 01:48:00;;;;;;;14.07;8.45;;;;;;;4.90;98.89;102547.47;4934674;28;20502;-73
2023/01/03 01:50:51;;;;;;;14.98;8.45;;;;;;;4.80;99.40;102548.13;4886065;29;20056;-72
2023/01/03 01:53:28;;;;;;;15.98;8.15;;;;;;;4.71;99.24;102556.63;4934816;28;20048;-74
2023/01/03 01:56:06;;;;;;;17.70;8.43;;;;;;;4.68;99.67;102550.47;4929524;29;20100;-73
2023/01/03 01:58:37;;;;;;;22.05;8.95;;;;;;;4.65;99.85;102548.66;4934947;28;20527;-74
2023/01/03 02:01:10;;;;;;;13.90;8.35;;;;;;;4.64;99.79;102549.50;4934164;28;20048;-73
2023/01/03 02:03:41;;;;;;;14.55;8.30;;;;;;;4.62;99.90;102551.19;4933545;28;20044;-74
2023/01/03 02:06:13;;;;;;;15.35;9.07;;;;;;;4.61;100.00;102555.56;4945467;28;20056;-75
2023/01/03 02:08:40;;;;;;;19.02;9.20;;;;;;;4.59;100.00;102551.13;4952666;28;20043;-75
2023/01/03 02:11:43;;;;;;;17.42;8.90;;;;;;;4.56;100.00;102549.34;4949784;28;20039;-75
2023/01/03 02:14:40;;;;;;;15.57;9.23;;;;;;;4.49;100.00;102561.38;4946794;28;20101;-75
2023/01/03 02:17:53;;;;;;;16.67;9.40;;;;;;;4.46;99.98;102555.19;4949547;28;20134;-75
2023/01/03 02:20:35;;;;;;;18.13;9.85;;;;;;;4.39;100.00;102558.53;4943662;28;20584;-74
2023/01/03 02:23:32;;;;;;;16.27;10.35;;;;;;;4.40;100.00;102561.16;4952531;28;20047;-74
2023/01/03 02:26:37;;;;;;;20.00;10.95;;;;;;;4.44;100.00;102551.66;4951387;28;20111;-74
2023/01/03 02:29:38;;;;;;;26.42;11.30;;;;;;;4.47;100.00;102550.03;4952083;28;20063;-73
2023/01/03 02:32:56;;;;;;;21.20;11.00;;;;;;;4.49;100.00;102558.75;4951660;28;20047;-72
2023/01/03 02:36:05;;;;;;;18.08;11.40;;;;;;;4.44;100.00;102554.28;4921765;28;20060;-72
2023/01/03 02:39:09;;;;;;;21.30;11.32;;;;;;;4.35;100.00;102558.44;4946213;28;20063;-72
2023/01/03 02:42:56;;;;;;;20.23;11.27;;;;;;;4.26;100.00;102562.59;4952979;28;20055;-73
2023/01/03 02:45:01;;;;;;;20.05;11.10;;;;;;;4.13;100.00;102556.19;4950729;28;20052;-73
2023/01/03 02:47:37;;;;;;;19.60;12.18;;;;;;;4.07;100.00;102553.44;4951832;28;20047;-73
2023/01/03 02:50:09;;;;;;;18.88;11.43;;;;;;;3.98;100.00;102557.59;4951099;28;20044;-73
2023/01/03 02:52:40;;;;;;;20.02;12.25;;;;;;;3.89;100.00;102550.41;4944048;28;20103;-72
2023/01/03 02:55:18;;;;;;;29.67;14.30;;;;;;;3.85;100.00;102559.03;4952950;28;20047;-75
2023/01/03 02:57:58;;;;;;;22.83;13.15;;;;;;;3.76;100.00;102547.44;4954373;28;20127;-75
2023/01/03 03:00:31;;;;;;;21.75;12.57;;;;;;;3.70;100.00;102545.56;4955925;28;20072;-75
2023/01/03 03:03:11;;;;;;;20.23;13.18;;;;;;;3.64;100.00;102541.06;4954968;28;20032;-74
2023/01/03 03:05:53;;;;;;;27.40;13.15;;;;;;;3.60;100.00;102543.56;4965371;28;20056;-73
2023/01/03 03:08:20;;;;;;;22.65;13.25;;;;;;;3.53;100.00;102542.50;4974805;28;20126;-73
2023/01/03 03:13:57;;;;;;;23.15;13.52;;;;;;;3.45;100.00;102531.91;4971870;28;20101;-73
2023/01/03 03:16:48;;;;;;;21.45;13.48;;;;;;;3.39;100.00;102530.03;4974292;28;20067;-73
2023/01/03 03:25:46;;;;;;;26.27;14.57;;;;;;;3.29;100.00;102546.25;4978155;28;20023;-73
2023/01/03 03:28:35;;;;;;;24.52;14.43;;;;;;;3.28;100.00;102548.81;4990537;28;20057;-73
2023/01/03 03:31:16;;;;;;;29.08;15.77;;;;;;;3.25;100.00;102545.28;4989557;28;20046;-72
2023/01/03 03:34:05;;;;;;;28.95;15.25;;;;;;;3.23;100.00;102546.97;4979259;28;20115;-72
2023/01/03 03:37:01;;;;;;;25.75;15.10;;;;;;;3.21;100.00;102550.34;4980757;28;20039;-73
2023/01/03 03:45:32;;;;;;;28.83;15.00;;;;;;;3.13;100.00;102544.94;4974094;28;20575;-73
2023/01/03 03:48:12;;;;;;;24.52;14.70;;;;;;;3.13;100.00;102544.94;4974508;28;20039;-73
2023/01/03 03:50:52;;;;;;;28.95;16.55;;;;;;;3.14;100.00;102551.94;4968930;28;20047;-73
2023/01/03 03:53:32;;;;;;;30.15;14.82;;;;;;;3.13;100.00;102562.28;4973305;28;20047;-74
2023/01/03 03:56:12;;;;;;;31.10;15.77;;;;;;;3.12;100.00;102551.00;4975242;28;20051;-74
2023/01/03 03:58:43;;;;;;;28.95;16.00;;;;;;;3.09;100.00;102561.31;4973212;28;20044;-74
2023/01/03 04:01:16;;;;;;;27.45;15.43;;;;;;;3.07;100.00;102569.13;4973161;28;20525;-74
2023/01/03 04:03:48;;;;;;;29.58;15.20;;;;;;;3.05;100.00;102559.50;4972996;28;20040;-72
2023/01/03 04:06:30;;;;;;;26.15;15.10;;;;;;;3.06;100.00;102563.84;4973852;28;20409;-72
2023/01/03 04:08:58;;;;;;;28.75;14.80;;;;;;;3.04;100.00;102574.22;4971947;28;20044;-72
2023/01/03 04:11:25;;;;;;;30.83;14.45;;;;;;;3.03;100.00;102569.84;4973364;28;20047;-72
2023/01/03 04:13:52;;;;;;;28.85;13.93;;;;;;;3.01;100.00;102566.31;4972503;28;20067;-72
2023/01/03 04:16:19;;;;;;;29.60;14.27;;;;;;;2.98;100.00;102571.47;4972938;28;20047;-74
2023/01/03 04:18:47;;;;;;;24.00;14.20;;;;;;;2.97;100.00;102571.38;4972217;28;20055;-74
2023/01/03 04:21:16;;;;;;;27.35;13.50;;;;;;;2.95;100.00;102577.44;4973844;28;20070;-72
2023/01/03 04:23:47;;;;;;;27.10;14.55;;;;;;;2.93;100.00;102580.84;4973092;28;20083;-72
2023/01/03 04:26:16;;;;;;;30.48;13.98;;;;;;;2.92;100.00;102585.19;4973971;28;20043;-74
2023/01/03 04:28:43;;;;;;;25.95;13.23;;;;;;;2.88;100.00;102577.25;4973816;28;20501;-75
2023/01/03 04:31:10;;;;;;;28.15;13.50;;;;;;;2.87;100.00;102575.47;4973939;28;20512;-75
2023/01/03 04:33:37;;;;;;;27.67;14.13;;;;;;;2.84;100.00;102581.47;4971508;28;20054;-71
2023/01/03 04:36:06;;;;;;;24.83;13.73;;;;;;;2.83;100.00;102584.00;4974292;28;20079;-71
2023/01/03 04:38:33;;;;;;;30.63;14.15;;;;;;;2.82;100.00;102575.34;4969237;28;20039;-71
2023/01/03 04:41:06;;;;;;;23.92;13.57;;;;;;;2.84;100.00;102588.38;4974738;28;20094;-71
2023/01/03 04:46:20;;;;;;;28.67;14.15;;;;;;;2.80;100.00;102588.28;4972838;28;20777;-71
2023/01/03 04:48:48;;;;;;;25.33;14.00;;;;;;;2.82;100.00;102590.97;4972689;28;20054;-71
2023/01/03 04:51:15;;;;;;;27.15;14.02;;;;;;;2.82;100.00;102590.06;4974594;28;20047;-71
2023/01/03 04:53:42;;;;;;;27.95;13.80;;;;;;;2.83;100.00;102586.63;4971535;28;20142;-71
2023/01/03 04:56:09;;;;;;;38.97;14.85;;;;;;;2.83;100.00;102591.84;4973602;28;20667;-73
2023/01/03 04:58:36;;;;;;;24.85;14.35;;;;;;;2.81;100.00;102583.97;4973903;28;20098;-72
2023/01/03 05:01:08;;;;;;;27.77;14.73;;;;;;;2.80;100.00;102583.09;4972967;28;20046;-73
2023/01/03 05:03:36;;;;;;;27.95;14.40;;;;;;;2.79;100.00;102580.44;4970107;28;20055;-73
2023/01/03 05:06:07;;;;;;;24.92;14.32;;;;;;;2.79;100.00;102580.44;4973378;28;20087;-72
2023/01/03 05:08:35;;;;;;;31.23;15.95;;;;;;;2.85;100.00;102572.78;4972942;28;20043;-71
2023/01/03 05:11:02;;;;;;;30.30;14.55;;;;;;;2.93;100.00;102573.94;4973673;28;20050;-72
2023/01/03 05:13:30;;;;;;;27.38;14.82;;;;;;;2.99;100.00;102568.00;4972932;28;20043;-72
2023/01/03 05:16:07;;;;;;;27.13;14.35;;;;;;;3.07;100.00;102576.94;4973159;28;20553;-72
2023/01/03 05:18:36;;;;;;;23.98;13.50;;;;;;;3.13;100.00;102568.41;4972378;28;20954;-72
2023/01/03 05:26:45;;;;;;;25.58;14.00;;;;;;;3.33;100.00;102565.47;4973506;28;20043;-72
2023/01/03 05:29:19;;;;;;;23.95;14.32;;;;;;;3.34;100.00;102565.50;4971498;28;20528;-72
2023/01/03 05:31:46;;;;;;;25.60;13.70;;;;;;;3.34;100.00;102572.44;4972799;28;20119;-72
2023/01/03 05:34:14;;;;;;;32.13;14.18;;;;;;;3.36;100.00;102576.84;4970982;28;20081;-72
2023/01/03 05:36:41;;;;;;;23.92;13.55;;;;;;;3.40;100.00;102572.59;4953714;28;20044;-72
2023/01/03 05:39:10;;;;;;;24.25;12.88;;;;;;;3.45;100.00;102575.34;4973044;28;20520;-72
2023/01/03 05:44:22;;;;;;;28.60;13.07;;;;;;;3.57;100.00;102576.53;4966453;28;20481;-72
2023/01/03 05:46:50;;;;;;;26.05;13.40;;;;;;;3.64;100.00;102576.72;4973425;28;20686;-73
2023/01/03 05:49:17;;;;;;;23.23;12.20;;;;;;;3.66;100.00;102568.09;4971985;28;20039;-71
2023/01/03 05:51:45;;;;;;;23.33;13.52;;;;;;;3.71;100.00;102571.69;4972294;28;20803;-71
2023/01/03 05:54:17;;;;;;;23.80;12.65;;;;;;;3.76;100.00;102566.63;4972096;28;20536;-71
2023/01/03 05:56:45;;;;;;;24.67;13.18;;;;;;;3.81;100.00;102567.59;4973235;28;20536;-71
2023/01/03 05:59:12;;;;;;;27.00;13.50;;;;;;;3.86;100.00;102562.50;4971828;28;20039;-71
2023/01/03 06:01:39;;;;;;;28.25;12.90;;;;;;;3.90;100.00;102559.13;4972405;28;20059;-73
2023/01/03 06:04:07;;;;;;;23.10;13.05;;;;;;;3.92;100.00;102560.03;4969991;28;20043;-73
2023/01/03 06:06:34;;;;;;;24.65;13.02;;;;;;;3.94;100.00;102558.34;4972168;28;20179;-76
2023/01/03 06:09:01;;;;;;;24.48;12.00;;;;;;;3.95;100.00;102559.25;4971981;28;20119;-76
2023/01/03 06:11:28;;;;;;;23.60;12.35;;;;;;;3.94;100.00;102555.75;4972615;28;20074;-71
2023/01/03 06:13:56;;;;;;;22.23;12.75;;;;;;;3.94;100.00;102558.34;4970990;28;20509;-75
2023/01/03 06:19:09;;;;;;;20.08;11.93;;;;;;;3.95;100.00;102556.63;4972433;28;20048;-74
2023/01/03 06:21:37;;;;;;;22.65;11.50;;;;;;;3.93;100.00;102548.75;4971432;28;20065;-72
2023/01/03 06:24:04;;;;;;;22.42;12.35;;;;;;;3.86;100.00;102550.34;4969975;28;20152;-74
2023/01/03 06:26:32;;;;;;;21.83;12.50;;;;;;;3.81;100.00;102556.28;4974898;28;20464;-73
2023/01/03 06:28:59;;;;;;;26.25;12.23;;;;;;;3.77;100.00;102544.00;4970687;28;20035;-73
2023/01/03 06:31:27;;;;;;;18.70;11.68;;;;;;;3.70;100.00;102538.66;4973000;28;20039;-74
2023/01/03 06:33:54;;;;;;;19.83;11.80;;;;;;;3.64;100.00;102541.06;4970546;28;20426;-73
2023/01/03 06:36:24;;;;;;;22.38;12.30;;;;;;;3.57;100.00;102539.16;4974158;28;20043;-72
2023/01/03 06:38:53;;;;;;;20.45;12.05;;;;;;;3.50;100.00;102547.69;4981068;28;20098;-74
2023/01/03 06:41:20;;;;;;;23.55;11.82;;;;;;;3.44;100.00;102551.00;4984142;28;20050;-75
2023/01/03 06:43:48;;;;;;;22.90;12.23;;;;;;;3.40;100.00;102552.66;4981344;28;20121;-74
2023/01/03 06:54:37;;;;;;;20.02;11.57;;;;;;;3.36;100.00;102557.72;4982149;28;20045;-72
2023/01/03 06:57:04;;;;;;;25.67;12.65;;;;;;;3.30;100.00;102547.13;4980972;28;20058;-72
2023/01/03 06:59:31;;;;;;;23.05;12.48;;;;;;;3.29;100.00;102548.88;4976193;28;20043;-75
2023/01/03 07:02:01;;;;;;;23.63;12.65;;;;;;;3.29;100.00;102546.25;4977016;28;20047;-74
2023/01/03 07:04:28;;;;;;;24.35;12.10;;;;;;;3.31;100.00;102543.69;4969469;28;20050;-74
2023/01/03 07:06:55;;;;;;;26.02;13.23;;;;;;;3.39;100.00;102543.06;4981259;28;20057;-74
2023/01/03 07:09:23;;;;;;;25.00;13.00;;;;;;;3.49;100.00;102543.31;4978424;28;20050;-74
2023/01/03 07:11:50;;;;;;;25.85;13.43;;;;;;;3.58;100.00;102538.31;4981699;28;20428;-74
2023/01/03 07:14:17;;;;;;;23.10;13.55;;;;;;;3.67;100.00;102540.25;4980140;28;20563;-74
2023/01/03 07:16:47;;;;;;;29.45;13.95;;;;;;;3.71;100.00;102534.28;4982440;28;20042;-74
2023/01/03 07:19:18;;;;;;;27.08;13.75;;;;;;;3.79;100.00;102544.94;4977845;28;20105;-73
2023/01/03 07:21:46;;;;;;;26.48;13.82;;;;;;;3.83;100.00;102541.53;4977643;28;20126;-72
2023/01/03 07:24:17;;;;;;;26.35;13.60;;;;;;;3.87;100.00;102540.78;4970984;28;20050;-72
2023/01/03 07:26:44;;;;;;;28.35;13.48;;;;;;;3.91;100.00;102545.25;4974980;28;20133;-73
2023/01/03 07:29:11;;;;;;;25.27;13.55;;;;;;;3.89;100.00;102547.78;4972444;28;20043;-71
2023/01/03 07:31:40;;;;;;;27.02;12.73;;;;;;;3.91;100.00;102553.06;4962885;28;20084;-72
2023/01/03 07:34:08;;;;;;;24.45;13.95;;;;;;;3.96;100.00;102547.97;4963737;28;20063;-73
2023/01/03 07:36:36;;;;;;;22.92;13.85;;;;;;;4.00;100.00;102555.91;4975328;28;20527;-72
2023/01/03 07:39:03;;;;;;;27.10;14.57;;;;;;;4.04;100.00;102552.50;4973117;28;20067;-72
2023/01/03 07:44:19;;;;;;;29.38;16.13;;;;;;;4.14;100.00;102556.22;4975311;28;20941;-72
2023/01/03 07:46:46;;;;;;;28.73;15.13;;;;;;;4.20;100.00;102555.50;4982911;28;20039;-74
2023/01/03 07:49:13;;;;;;;30.15;15.05;;;;;;;4.26;100.00;102539.97;4977485;28;20118;-74
2023/01/03 07:51:40;;;;;;;27.45;14.88;;;;;;;4.33;100.00;102522.72;4972215;28;20043;-75
2023/01/03 07:54:07;;;;;;;24.20;14.80;;;;;;;4.52;100.00;102524.03;4967780;28;20066;-73
2023/01/03 07:56:34;;;;;;;26.75;14.63;;;;;;;4.71;100.00;102540.09;4981263;28;20122;-74
2023/01/03 07:59:02;;;;;;;26.85;15.05;;;;;;;4.96;100.00;102544.09;4974681;28;20051;-74
2023/01/03 08:01:29;;;;;;;24.15;15.02;;;;;;;5.18;100.00;102549.75;4969227;28;20043;-75
2023/01/03 08:03:57;;;;;;;21.95;12.65;;;;;;;5.32;100.00;102550.88;4969451;28;20071;-75
2023/01/03 08:06:24;;;;;;;21.00;12.52;;;;;;;5.38;100.00;102556.25;4970480;28;20142;-77
2023/01/03 08:14:23;;;;;;;16.58;9.52;;;;;;;5.37;100.00;102570.16;4972078;28;20509;-75
2023/01/03 08:16:55;;;;;;;16.73;9.75;;;;;;;5.38;100.00;102577.16;4966419;28;20417;-75
2023/01/03 08:19:32;;;;;;;17.17;10.13;;;;;;;5.38;100.00;102581.50;4969035;28;20715;-76
2023/01/03 08:21:59;;;;;;;17.05;8.70;;;;;;;5.36;100.00;102580.59;4963936;28;20070;-75
2023/01/03 08:24:27;;;;;;;16.50;9.02;;;;;;;5.34;100.00;102577.09;4967459;28;20123;-76
2023/01/03 08:26:54;;;;;;;19.00;14.05;;;;;;;5.40;100.00;102571.94;4962902;28;20972;-74
2023/01/03 08:29:21;;;;;;;17.10;12.13;;;;;;;5.50;100.00;102580.84;4969272;28;20050;-75
2023/01/03 08:31:56;;;;;;;20.67;12.20;;;;;;;5.55;100.00;102581.81;4969632;28;20045;-72
2023/01/03 08:34:30;;;;;;;16.95;11.80;;;;;;;5.50;100.00;102567.75;4968626;28;20152;-71
2023/01/03 08:37:06;;;;;;;17.37;13.27;;;;;;;5.48;100.00;102572.09;4969286;28;20036;-71
2023/01/03 08:39:42;;;;;;;17.95;14.73;;;;;;;5.45;100.00;102570.28;4969586;28;20466;-72
2023/01/03 08:42:22;;;;;;;17.55;13.93;;;;;;;5.45;100.00;102570.28;4969101;28;20517;-72
2023/01/03 08:45:00;;;;;;;15.20;10.27;;;;;;;5.44;100.00;102581.63;4971819;28;20047;-72
2023/01/03 08:47:29;;;;;;;14.65;10.40;;;;;;;5.42;100.00;102585.94;4970538;28;20094;-73
2023/01/03 08:49:58;;;;;;;32.72;23.75;;;;;;;5.44;100.00;102597.34;4969094;28;20424;-73
2023/01/03 08:52:25;;;;;;;16.05;11.07;;;;;;;5.47;100.00;102596.50;4971413;28;20520;-75
2023/01/03 08:55:00;;;;;;;15.88;10.25;;;;;;;5.52;100.00;102593.13;4971960;28;20082;-73
2023/01/03 08:57:27;;;;;;;19.67;15.23;;;;;;;5.61;100.00;102589.78;4971160;28;20465;-73
2023/01/03 08:59:55;;;;;;;25.45;21.88;;;;;;;5.72;100.00;102595.22;4976563;28;20065;-76
2023/01/03 09:02:22;;;;;;;50.50;39.88;;;;;;;5.81;100.00;102598.00;4983170;28;20027;-74
2023/01/03 09:04:49;;;;;;;26.73;20.98;;;;;;;5.88;100.00;102586.78;4990106;28;20051;-76
2023/01/03 09:07:16;;;;;;;27.20;19.20;;;;;;;5.95;100.00;102594.75;4994104;28;20078;-76
2023/01/03 09:09:44;;;;;;;34.15;25.70;;;;;;;6.01;100.00;102594.88;4955991;28;20090;-77
2023/01/03 09:12:11;;;;;;;17.65;11.00;;;;;;;6.08;100.00;102595.88;4965122;28;20043;-76
2023/01/03 09:14:38;;;;;;;21.92;18.55;;;;;;;6.13;100.00;102596.81;4971496;28;20071;-76
2023/01/03 09:17:05;;;;;;;18.35;12.68;;;;;;;6.19;100.00;102603.03;4972319;28;20039;-75
2023/01/03 09:19:34;;;;;;;20.90;13.85;;;;;;;6.28;100.00;102604.03;4967271;28;20039;-75
2023/01/03 09:22:03;;;;;;;15.73;11.65;;;;;;;6.36;100.00;102607.63;4968834;28;20146;-75
2023/01/03 09:24:31;;;;;;;36.97;24.45;;;;;;;6.44;100.00;102605.16;4974529;28;20130;-76
2023/01/03 09:26:59;;;;;;;21.83;14.77;;;;;;;6.48;100.00;102602.59;4979957;28;20540;-75
2023/01/03 09:29:26;;;;;;;14.38;11.32;;;;;;;6.53;100.00;102606.19;4974705;28;20043;-74
2023/01/03 09:31:53;;;;;;;17.30;13.82;;;;;;;6.62;100.00;102597.56;4975889;28;20031;-77
2023/01/03 09:34:21;;;;;;;21.92;15.90;;;;;;;6.68;100.00;102599.38;4970949;28;20054;-76
2023/01/03 09:36:49;;;;;;;16.48;12.10;;;;;;;6.75;100.00;102606.50;4976982;28;20043;-74
2023/01/03 09:39:18;;;;;;;16.55;9.82;;;;;;;6.80;100.00;102596.06;4971522;28;20050;-75
2023/01/03 09:43:11;;;;;;;15.02;8.25;;;;;;;6.88;100.00;102602.28;4960626;28;20118;-76
2023/01/03 09:44:33;;;;;;;16.08;10.82;;;;;;;6.97;100.00;102604.13;4974549;28;20102;-76
2023/01/03 09:47:02;;;;;;;15.43;11.88;;;;;;;7.05;100.00;102605.13;4975535;28;20051;-76
2023/01/03 09:49:30;;;;;;;20.50;11.35;;;;;;;7.08;100.00;102605.16;4973472;28;20042;-77
2023/01/03 10:04:04;;;;;;;13.10;7.47;;;;;;;7.12;100.00;102611.34;4969042;28;20106;-73
2023/01/03 10:07:00;;;;;;;12.25;7.53;;;;;;;7.13;100.00;102611.34;4969707;28;20453;-73
2023/01/03 10:09:53;;;;;;;12.98;7.65;;;;;;;7.13;100.00;102608.72;4968192;28;20504;-74
2023/01/03 10:12:38;;;;;;;12.75;7.30;;;;;;;7.12;100.00;102604.34;4970386;28;20134;-74
2023/01/03 10:15:24;;;;;;;;;;;;;;;7.13;100.00;102607.84;4971907;28;20039;-74
2023/01/03 10:18:28;;;;;;;16.27;7.40;;;;;;;7.15;100.00;102600.88;4965280;28;19927;-74
2023/01/03 10:21:35;;;;;;;35.80;22.88;;;;;;;7.20;100.00;102598.31;4969360;28;20045;-75
2023/01/03 10:24:19;;;;;;;28.85;20.52;;;;;;;7.27;100.00;102594.91;4967608;28;20063;-74
2023/01/03 10:26:52;;;;;;;19.70;14.25;;;;;;;7.26;100.00;102601.88;4948710;28;20051;-74
2023/01/03 10:29:20;;;;;;;15.38;9.45;;;;;;;7.32;100.00;102587.09;4969840;28;20509;-77
2023/01/03 10:32:30;;;;;;;33.78;24.17;;;;;;;7.38;100.00;102587.16;4969887;28;20044;-74
2023/01/03 10:35:33;;;;;;;25.65;17.27;;;;;;;7.44;100.00;102590.72;4971237;28;20728;-75
2023/01/03 10:38:01;;;;;;;20.05;14.48;;;;;;;7.48;100.00;102593.38;4970481;28;21206;-75
2023/01/03 10:40:44;;;;;;;77.65;58.97;;;;;;;7.53;100.00;102596.94;4979077;28;20039;-75
2023/01/03 10:43:36;;;;;;;42.17;30.70;;;;;;;7.58;100.00;102590.88;4970996;28;20513;-76
2023/01/03 10:46:24;;;;;;;18.15;12.48;;;;;;;7.61;99.96;102600.50;4971218;28;20051;-75
2023/01/03 10:48:56;;;;;;;22.67;12.35;;;;;;;7.63;99.92;102582.16;4965448;28;20111;-75
2023/01/03 10:51:56;;;;;;;33.08;20.70;;;;;;;7.70;99.97;102586.59;4973456;28;20142;-75
2023/01/03 10:54:42;;;;;;;20.45;13.00;;;;;;;7.76;99.78;102590.16;4973277;28;20043;-76
2023/01/03 10:57:38;;;;;;;17.98;10.13;;;;;;;7.85;99.47;102575.34;4969049;28;20048;-75
2023/01/03 11:00:32;;;;;;;24.00;15.63;;;;;;;7.92;99.42;102583.31;4973864;28;20137;-74
2023/01/03 11:03:15;;;;;;;21.42;9.68;;;;;;;7.98;99.46;102579.84;4963769;28;20522;-69
2023/01/03 11:06:00;;;;;;;27.98;17.20;;;;;;;8.00;99.33;102578.09;4972588;28;20560;-73
2023/01/03 11:08:44;;;;;;;13.23;7.82;;;;;;;8.08;99.20;102576.44;4972764;28;20057;-74
2023/01/03 11:11:52;;;;;;;22.23;15.23;;;;;;;8.13;98.76;102579.09;4979528;28;20455;-74
2023/01/03 11:14:25;;;;;;;13.82;8.45;;;;;;;8.16;98.66;102579.09;4936916;28;20545;-74
2023/01/03 11:17:01;;;;;;;12.15;6.40;;;;;;;8.22;98.53;102579.16;4980553;28;20097;-74
2023/01/03 11:19:32;;;;;;;12.45;5.93;;;;;;;8.26;98.60;102574.81;4967497;28;20051;-75
2023/01/03 11:22:22;;;;;;;9.52;6.25;;;;;;;8.33;98.29;102573.97;4979807;28;20231;-75
2023/01/03 11:28:22;;;;;;;;;;;;;;;8.46;98.43;102564.41;4242516;23;20060;-76
2023/01/03 11:31:12;;;;;;;11.48;5.78;;;;;;;8.59;98.50;102554.91;4955231;28;19962;-76
2023/01/03 11:34:21;;;;;;;12.15;5.78;;;;;;;8.70;98.22;102557.56;4952836;28;20055;-75
2023/01/03 11:37:09;;;;;;;26.13;21.58;;;;;;;8.76;97.85;102559.34;4953949;28;20048;-75
2023/01/03 11:40:02;;;;;;;35.65;31.52;;;;;;;8.77;97.73;102554.09;4950731;28;20059;-75
2023/01/03 11:42:48;;;;;;;22.88;17.27;;;;;;;8.87;97.59;102557.66;4963338;28;20044;-75
2023/01/03 11:45:28;;;;;;;28.67;23.63;;;;;;;8.97;97.46;102562.09;4950230;28;20047;-75
2023/01/03 11:48:21;;;;;;;8.30;4.68;;;;;;;9.08;96.92;102554.22;4950638;28;20043;-75
2023/01/03 11:51:10;;;;;;;7.82;4.88;;;;;;;9.09;96.58;102548.09;4952840;28;20046;-75
2023/01/03 11:54:01;;;;;;;10.30;4.30;;;;;;;9.09;96.23;102547.22;4948401;28;20091;-75
2023/01/03 11:56:39;;;;;;;9.40;5.20;;;;;;;9.06;96.37;102540.19;5068524;23;20174;-77
2023/01/03 11:59:58;;;;;;;9.43;4.70;;;;;;;9.05;95.20;102540.19;4984585;28;20046;-77
2023/01/03 12:03:15;;;;;;;9.20;5.22;;;;;;;9.02;95.40;102534.03;4984405;28;20061;-79
2023/01/03 12:05:50;;;;;;;8.38;4.63;;;;;;;9.04;95.18;102526.16;4980299;28;20059;-77
2023/01/03 12:08:41;;;;;;;9.48;4.88;;;;;;;9.05;95.09;102527.03;4987319;28;20042;-79
2023/01/03 12:11:26;;;;;;;8.02;4.38;;;;;;;9.05;95.15;102525.28;4976689;28;20047;-78
2023/01/03 12:14:35;;;;;;;8.35;4.50;;;;;;;9.04;94.63;102522.63;4988112;28;20062;-78
2023/01/03 12:17:16;;;;;;;7.57;4.05;;;;;;;8.99;94.43;102518.25;4983134;28;20098;-78
2023/01/03 12:19:50;;;;;;;10.90;4.75;;;;;;;8.98;94.76;102516.50;4970059;28;20082;-77
2023/01/03 12:22:29;;;;;;;12.67;4.33;;;;;;;8.97;94.77;102508.59;4980073;28;20040;-77
2023/01/03 12:25:17;;;;;;;11.27;4.55;;;;;;;8.98;94.69;102515.59;4984211;28;20504;-76
2023/01/03 12:28:17;;;;;;;9.95;4.47;;;;;;;8.96;94.65;102510.34;4984898;28;20043;-78
2023/01/03 12:31:07;;;;;;;171.18;71.28;;;;;;;8.98;94.78;102507.72;4986566;28;20049;-78
2023/01/03 12:34:02;;;;;;;70.80;55.08;;;;;;;9.01;94.66;102513.00;4959021;28;20051;-79
2023/01/03 12:36:40;;;;;;;;;;;;;;;9.02;94.71;102512.13;4982866;28;20511;-80
2023/01/03 12:39:35;;;;;;;8.40;5.57;;;;;;;9.05;94.74;102511.25;4965209;28;19926;-81
2023/01/03 12:42:14;;;;;;;;;;;;;;;9.00;94.65;102506.84;4987638;28;20050;-79
2023/01/03 12:44:45;;;;;;;14.07;10.60;;;;;;;9.01;94.67;102499.84;4991920;28;19930;-82
2023/01/03 12:47:32;;;;;;;11.63;6.25;;;;;;;8.99;94.00;102498.94;4973460;28;20134;-80
2023/01/03 12:50:17;;;;;;;11.07;5.60;;;;;;;8.99;94.32;102501.56;4984504;28;20047;-77
2023/01/03 12:52:57;;;;;;;9.25;3.97;;;;;;;8.98;94.04;102502.44;4988987;28;20039;-77
2023/01/03 12:55:50;;;;;;;10.10;4.78;;;;;;;8.95;93.80;102494.56;4986593;28;20052;-80
2023/01/03 12:59:15;;;;;;;9.38;5.32;;;;;;;8.95;93.63;102497.19;4981702;28;20043;-77
2023/01/03 13:01:52;;;;;;;14.68;12.85;;;;;;;8.94;93.50;102496.31;4930401;29;20048;-77
2023/01/03 13:04:34;;;;;;;7.13;3.40;;;;;;;8.97;93.31;102491.06;4981987;28;20055;-78